Terminal Aerodrome Forecast
Issued by NWS

Home | Current Version | Previous Version | Text Only | Print | Product List | Glossary On
Versions: 1 2 3 4 5 6 7 8 9 10 11 12 13 14 15 16 17 18 19 20 21 22 23 24 25 26 27 28 29 30 31 32
000
FTUS41 KBOX 250539
TAFFMH
TAF
KFMH 250539Z 2506/2606 20022G31KT 3SM -DZ BR OVC005 WS020/22045KT
     FM251000 21018G30KT 3SM RA BR OVC003
     FM251200 24014G27KT 1SM -RA BR OVC008
     FM251600 25013G27KT P6SM BKN015
     FM251800 26015G29KT P6SM SCT250=

USA.gov is the U.S. government's official web portal to all federal, state and local government web resources and services.